createdAt,value
2018-09-22T00:00:50.175Z,21.83
2018-09-22T00:03:11.443Z,21.82
2018-09-22T00:04:12.051Z,21.79
2018-09-22T00:05:11.691Z,21.81
2018-09-22T00:06:11.823Z,21.8
2018-09-22T00:07:11.812Z,21.8
2018-09-22T00:08:11.610Z,21.8
2018-09-22T00:09:11.794Z,21.79
2018-09-22T00:10:11.769Z,21.81
2018-09-22T00:11:12.067Z,21.8
2018-09-22T00:12:11.536Z,21.8
2018-09-22T00:13:11.710Z,21.81
2018-09-22T00:15:33.173Z,21.8
2018-09-22T00:16:33.349Z,21.8
2018-09-22T00:17:33.686Z,21.8
2018-09-22T00:18:33.433Z,21.81
2018-09-22T00:19:33.582Z,21.8
2018-09-22T00:20:33.469Z,21.77
2018-09-22T00:21:33.866Z,21.79
2018-09-22T00:22:33.421Z,21.8
2018-09-22T00:23:33.426Z,21.8
2018-09-22T00:24:33.574Z,21.8
2018-09-22T00:25:33.521Z,21.81
2018-09-22T00:27:54.959Z,21.79
2018-09-22T00:28:55.022Z,21.81
2018-09-22T00:29:54.975Z,21.79
2018-09-22T00:30:55.066Z,21.79
2018-09-22T00:31:54.986Z,21.8
2018-09-22T00:32:55.249Z,21.82
2018-09-22T00:33:54.931Z,21.8
2018-09-22T00:34:55.367Z,21.81
2018-09-22T00:35:55.124Z,21.79
2018-09-22T00:36:55.122Z,21.78
2018-09-22T00:37:54.937Z,21.8
2018-09-22T00:40:16.728Z,21.77
2018-09-22T00:41:16.940Z,21.77
2018-09-22T00:42:16.886Z,21.79
2018-09-22T00:43:16.795Z,21.77
2018-09-22T00:44:16.931Z,21.78
2018-09-22T00:45:16.898Z,21.79
2018-09-22T00:46:16.860Z,21.77
2018-09-22T00:47:17.216Z,21.79
2018-09-22T00:48:16.860Z,21.8
2018-09-22T00:49:16.635Z,21.78
2018-09-22T00:50:16.953Z,21.77
2018-09-22T00:52:38.407Z,21.79
2018-09-22T00:53:38.417Z,21.79
2018-09-22T00:54:38.741Z,21.79
2018-09-22T00:55:38.532Z,21.78
2018-09-22T00:56:39.058Z,21.78
2018-09-22T00:57:38.580Z,21.77
2018-09-22T00:58:38.744Z,21.77
2018-09-22T00:59:38.783Z,21.77
2018-09-22T01:00:38.783Z,21.77
2018-09-22T01:01:38.545Z,21.77
2018-09-22T01:02:38.975Z,21.79
2018-09-22T01:05:00.191Z,21.77
2018-09-22T01:06:00.160Z,21.75
2018-09-22T01:07:00.245Z,21.75
2018-09-22T01:08:00.514Z,21.76
2018-09-22T01:09:00.281Z,21.74
2018-09-22T01:10:00.308Z,21.74
2018-09-22T01:11:00.518Z,21.76
2018-09-22T01:12:00.283Z,21.76
2018-09-22T01:13:00.525Z,21.74
2018-09-22T01:14:00.276Z,21.76
2018-09-22T01:15:00.188Z,21.76
2018-09-22T01:17:21.685Z,21.74
2018-09-22T01:18:21.786Z,21.74
2018-09-22T01:19:21.825Z,21.76
2018-09-22T01:20:21.827Z,21.75
2018-09-22T01:21:21.921Z,21.76
2018-09-22T01:22:21.841Z,21.76
2018-09-22T01:23:21.899Z,21.77
2018-09-22T01:24:22.035Z,21.76
2018-09-22T01:25:21.916Z,21.76
2018-09-22T01:26:21.873Z,21.76
2018-09-22T01:27:21.866Z,21.74
2018-09-22T01:29:43.423Z,21.76
2018-09-22T01:30:43.506Z,21.75
2018-09-22T01:31:43.519Z,21.74
2018-09-22T01:32:43.551Z,21.73
2018-09-22T01:33:43.583Z,21.77
2018-09-22T01:34:43.535Z,21.75
2018-09-22T01:35:43.613Z,21.73
2018-09-22T01:36:43.733Z,21.73
2018-09-22T01:37:43.627Z,21.72
2018-09-22T01:38:43.378Z,21.72
2018-09-22T01:39:43.660Z,21.72
2018-09-22T01:42:04.964Z,21.7
2018-09-22T01:43:05.352Z,21.73
2018-09-22T01:44:05.434Z,21.7
2018-09-22T01:45:05.383Z,21.74
2018-09-22T01:46:05.226Z,21.73
2018-09-22T01:47:05.229Z,21.73
2018-09-22T01:48:05.291Z,21.72
2018-09-22T01:49:05.256Z,21.74
2018-09-22T01:50:05.257Z,21.74
2018-09-22T01:51:05.487Z,21.73
2018-09-22T01:52:05.104Z,21.74
2018-09-22T01:54:26.807Z,21.74
2018-09-22T01:55:26.916Z,21.72
2018-09-22T01:56:26.973Z,21.74
2018-09-22T01:57:27.145Z,21.74
2018-09-22T01:58:27.176Z,21.73
2018-09-22T01:59:26.846Z,21.7
2018-09-22T02:00:26.951Z,21.73
2018-09-22T02:01:27.336Z,21.74
2018-09-22T02:02:27.294Z,21.7
2018-09-22T02:03:27.656Z,21.7
2018-09-22T02:04:27.011Z,21.72
2018-09-22T02:06:48.385Z,21.7
2018-09-22T02:07:48.695Z,21.73
2018-09-22T02:08:48.644Z,21.67
2018-09-22T02:09:48.856Z,21.72
2018-09-22T02:10:48.783Z,21.72
2018-09-22T02:11:48.824Z,21.73
2018-09-22T02:12:48.710Z,21.7
2018-09-22T02:13:48.663Z,21.69
2018-09-22T02:14:49.097Z,21.69
2018-09-22T02:15:48.565Z,21.68
2018-09-22T02:16:48.572Z,21.7
2018-09-22T02:21:10.184Z,21.69
2018-09-22T02:22:10.348Z,21.73
2018-09-22T02:23:10.629Z,21.68
2018-09-22T02:24:10.466Z,21.69
2018-09-22T02:25:10.320Z,21.69
2018-09-22T02:26:10.475Z,21.67
2018-09-22T02:27:10.422Z,21.67
2018-09-22T02:28:10.420Z,21.67
2018-09-22T02:29:10.381Z,21.69
2018-09-22T02:30:10.507Z,21.67
2018-09-22T02:31:10.423Z,21.69
2018-09-22T02:33:32.097Z,21.66
2018-09-22T02:34:32.008Z,21.69
2018-09-22T02:35:32.009Z,21.68
2018-09-22T02:36:32.266Z,21.67
2018-09-22T02:37:32.340Z,21.67
2018-09-22T02:38:32.019Z,21.65
2018-09-22T02:39:32.103Z,21.65
2018-09-22T02:40:32.112Z,21.64
2018-09-22T02:41:32.296Z,21.66
2018-09-22T02:42:32.210Z,21.66
2018-09-22T02:43:31.933Z,21.67
2018-09-22T02:47:53.716Z,21.63
2018-09-22T02:48:53.741Z,21.65
2018-09-22T02:49:53.704Z,21.66
2018-09-22T02:50:53.752Z,21.65
2018-09-22T02:51:53.807Z,21.66
2018-09-22T02:52:53.763Z,21.66
2018-09-22T02:53:53.780Z,21.66
2018-09-22T02:54:53.757Z,21.67
2018-09-22T02:55:53.812Z,21.65
2018-09-22T02:56:53.805Z,21.65
2018-09-22T02:57:53.782Z,21.64
2018-09-22T03:02:15.354Z,21.65
2018-09-22T03:03:15.807Z,21.65
2018-09-22T03:04:15.768Z,21.64
2018-09-22T03:05:15.560Z,21.66
2018-09-22T03:06:15.592Z,21.65
2018-09-22T03:07:15.556Z,21.63
2018-09-22T03:08:15.274Z,21.62
2018-09-22T03:09:15.679Z,21.62
2018-09-22T03:10:15.505Z,21.63
2018-09-22T03:11:15.577Z,21.62
2018-09-22T03:12:15.552Z,21.63
2018-09-22T03:16:37.261Z,21.61
2018-09-22T03:17:37.063Z,21.63
2018-09-22T03:18:37.196Z,21.62
2018-09-22T03:19:37.155Z,21.62
2018-09-22T03:20:37.186Z,21.61
2018-09-22T03:21:37.203Z,21.62
2018-09-22T03:22:37.155Z,21.61
2018-09-22T03:23:37.246Z,21.61
2018-09-22T03:24:37.185Z,21.62
2018-09-22T03:25:37.276Z,21.61
2018-09-22T03:26:38.685Z,21.63
2018-09-22T03:29:04.665Z,21.6
2018-09-22T03:30:04.700Z,21.6
2018-09-22T03:31:04.746Z,21.61
2018-09-22T03:32:04.543Z,21.61
2018-09-22T03:33:04.410Z,21.61
2018-09-22T03:34:05.063Z,21.6
2018-09-22T03:35:04.392Z,21.61
2018-09-22T03:36:04.325Z,21.6
2018-09-22T03:37:04.416Z,21.6
2018-09-22T03:38:04.417Z,21.62
2018-09-22T03:39:04.543Z,21.62
2018-09-22T03:43:31.784Z,21.62
2018-09-22T03:44:31.803Z,21.62
2018-09-22T03:45:31.938Z,21.61
2018-09-22T03:46:31.967Z,21.61
2018-09-22T03:47:31.957Z,21.6
2018-09-22T03:48:32.009Z,21.59
2018-09-22T03:49:31.931Z,21.57
2018-09-22T03:50:32.471Z,21.59
2018-09-22T03:51:31.921Z,21.6
2018-09-22T03:52:31.937Z,21.57
2018-09-22T03:53:31.986Z,21.59
2018-09-22T03:57:59.444Z,21.59
2018-09-22T03:58:59.264Z,21.6
2018-09-22T03:59:59.567Z,21.57
2018-09-22T04:00:59.331Z,21.58
2018-09-22T04:01:59.322Z,21.59
2018-09-22T04:02:59.319Z,21.59
2018-09-22T04:03:59.352Z,21.58
2018-09-22T04:04:59.352Z,21.59
2018-09-22T04:05:59.191Z,21.57
2018-09-22T04:06:59.201Z,21.59
2018-09-22T04:07:59.169Z,21.58
2018-09-22T04:12:27.113Z,21.58
2018-09-22T04:13:26.731Z,21.57
2018-09-22T04:14:26.944Z,21.55
2018-09-22T04:15:26.525Z,21.57
2018-09-22T04:16:26.435Z,21.57
2018-09-22T04:17:26.432Z,21.6
2018-09-22T04:18:26.496Z,21.59
2018-09-22T04:19:26.435Z,21.59
2018-09-22T04:20:26.608Z,21.57
2018-09-22T04:21:26.440Z,21.58
2018-09-22T04:22:26.799Z,21.57
2018-09-22T04:26:54.126Z,21.55
2018-09-22T04:27:54.123Z,21.55
2018-09-22T04:28:54.058Z,21.54
2018-09-22T04:29:54.011Z,21.55
2018-09-22T04:30:54.157Z,21.55
2018-09-22T04:31:54.543Z,21.54
2018-09-22T04:32:54.174Z,21.53
2018-09-22T04:33:53.921Z,21.55
2018-09-22T04:34:53.815Z,21.55
2018-09-22T04:35:54.009Z,21.53
2018-09-22T04:36:53.825Z,21.54
2018-09-22T04:39:21.500Z,21.55
2018-09-22T04:40:21.345Z,21.54
2018-09-22T04:41:21.467Z,21.55
2018-09-22T04:42:21.270Z,21.55
2018-09-22T04:43:21.818Z,21.58
2018-09-22T04:44:21.228Z,21.52
2018-09-22T04:45:21.728Z,21.52
2018-09-22T04:46:21.271Z,21.55
2018-09-22T04:47:21.297Z,21.53
2018-09-22T04:48:21.375Z,21.53
2018-09-22T04:49:21.187Z,21.53
2018-09-22T04:51:43.343Z,21.52
2018-09-22T04:52:43.070Z,21.53
2018-09-22T04:53:42.970Z,21.52
2018-09-22T04:54:42.937Z,21.53
2018-09-22T04:55:43.049Z,21.53
2018-09-22T04:56:43.173Z,21.52
2018-09-22T04:57:42.974Z,21.52
2018-09-22T04:58:43.003Z,21.53
2018-09-22T04:59:43.083Z,21.53
2018-09-22T05:00:43.003Z,21.53
2018-09-22T05:01:42.836Z,21.52
2018-09-22T05:04:04.653Z,21.52
2018-09-22T05:05:04.351Z,21.53
2018-09-22T05:06:04.625Z,21.53
2018-09-22T05:07:04.606Z,21.52
2018-09-22T05:08:04.778Z,21.43
2018-09-22T05:09:04.627Z,21.15
2018-09-22T05:10:04.413Z,20.92
2018-09-22T05:11:04.713Z,20.56
2018-09-22T05:12:04.715Z,20.43
2018-09-22T05:13:04.678Z,20.32
2018-09-22T05:14:04.685Z,20.25
2018-09-22T05:18:26.468Z,19.89
2018-09-22T05:19:26.319Z,19.77
2018-09-22T05:20:26.532Z,19.69
2018-09-22T05:21:26.359Z,19.69
2018-09-22T05:22:26.586Z,19.58
2018-09-22T05:23:26.440Z,19.47
2018-09-22T05:24:26.407Z,19.36
2018-09-22T05:25:26.437Z,19.37
2018-09-22T05:26:26.459Z,19.25
2018-09-22T05:27:26.528Z,19.2
2018-09-22T05:28:26.504Z,19.15
2018-09-22T05:32:53.565Z,18.88
2018-09-22T05:33:53.576Z,18.82
2018-09-22T05:34:53.577Z,18.82
2018-09-22T05:35:53.536Z,18.79
2018-09-22T05:36:53.626Z,18.77
2018-09-22T05:37:53.599Z,18.83
2018-09-22T05:38:53.654Z,18.91
2018-09-22T05:39:53.657Z,18.82
2018-09-22T05:40:53.747Z,18.94
2018-09-22T05:41:53.683Z,18.97
2018-09-22T05:42:53.726Z,18.93
2018-09-22T05:47:21.168Z,19.05
2018-09-22T05:48:21.160Z,19.15
2018-09-22T05:49:21.438Z,19.17
2018-09-22T05:50:21.154Z,19.27
2018-09-22T05:51:21.464Z,19.3
2018-09-22T05:52:21.481Z,19.33
2018-09-22T05:53:21.584Z,19.36
2018-09-22T05:54:21.315Z,19.37
2018-09-22T05:55:21.302Z,19.38
2018-09-22T05:56:21.264Z,19.39
2018-09-22T05:57:21.319Z,19.37
2018-09-22T05:59:48.551Z,19.01
2018-09-22T06:00:48.320Z,18.98
2018-09-22T06:01:49.076Z,18.88
2018-09-22T06:02:48.336Z,18.87
2018-09-22T06:03:49.381Z,18.93
2018-09-22T06:04:48.704Z,18.86
2018-09-22T06:05:48.498Z,18.85
2018-09-22T06:06:48.623Z,18.81
2018-09-22T06:07:48.507Z,18.71
2018-09-22T06:08:48.416Z,18.81
2018-09-22T06:09:48.577Z,18.78
2018-09-22T06:14:15.649Z,18.69
2018-09-22T06:15:16.050Z,18.68
2018-09-22T06:16:15.767Z,18.66
2018-09-22T06:17:15.937Z,18.72
2018-09-22T06:18:15.673Z,18.71
2018-09-22T06:19:15.636Z,18.69
2018-09-22T06:20:15.820Z,18.7
2018-09-22T06:21:15.696Z,18.64
2018-09-22T06:22:15.876Z,18.62
2018-09-22T06:23:16.945Z,18.62
2018-09-22T06:24:15.798Z,18.55
2018-09-22T06:26:42.998Z,18.57
2018-09-22T06:27:43.220Z,18.64
2018-09-22T06:28:43.633Z,18.63
2018-09-22T06:29:43.105Z,18.49
2018-09-22T06:30:43.270Z,18.53
2018-09-22T06:31:43.300Z,18.53
2018-09-22T06:32:43.354Z,18.48
2018-09-22T06:33:43.192Z,18.41
2018-09-22T06:34:43.332Z,18.39
2018-09-22T06:35:43.286Z,18.4
2018-09-22T06:36:43.273Z,18.41
2018-09-22T06:41:10.573Z,18.34
2018-09-22T06:42:10.785Z,18.35
2018-09-22T06:43:10.401Z,18.48
2018-09-22T06:44:10.437Z,18.62
2018-09-22T06:45:10.759Z,18.67
2018-09-22T06:46:11.085Z,18.77
2018-09-22T06:47:10.484Z,18.83
2018-09-22T06:48:10.510Z,18.88
2018-09-22T06:49:10.547Z,18.95
2018-09-22T06:50:10.578Z,19
2018-09-22T06:51:10.492Z,19.06
2018-09-22T06:55:37.698Z,19.23
2018-09-22T06:56:38.095Z,19.28
2018-09-22T06:57:37.907Z,19.3
2018-09-22T06:58:37.878Z,19.32
2018-09-22T06:59:37.829Z,19.38
2018-09-22T07:00:37.943Z,19.41
2018-09-22T07:01:37.896Z,19.42
2018-09-22T07:02:37.962Z,19.45
2018-09-22T07:03:37.811Z,19.5
2018-09-22T07:04:37.731Z,19.52
2018-09-22T07:05:37.862Z,19.53
2018-09-22T07:07:59.299Z,19.58
2018-09-22T07:08:59.636Z,19.6
2018-09-22T07:09:59.585Z,19.63
2018-09-22T07:10:59.541Z,19.63
2018-09-22T07:11:59.697Z,19.67
2018-09-22T07:12:59.425Z,19.66
2018-09-22T07:13:59.632Z,19.69
2018-09-22T07:14:59.340Z,19.71
2018-09-22T07:16:00.012Z,19.75
2018-09-22T07:16:59.686Z,19.71
2018-09-22T07:17:59.385Z,19.75
2018-09-22T07:22:21.129Z,19.81
2018-09-22T07:23:20.991Z,19.8
2018-09-22T07:24:21.019Z,19.82
2018-09-22T07:25:21.347Z,19.83
2018-09-22T07:26:20.742Z,19.84
2018-09-22T07:27:20.876Z,19.83
2018-09-22T07:28:20.758Z,19.86
2018-09-22T07:29:21.308Z,19.88
2018-09-22T07:30:20.935Z,19.89
2018-09-22T07:31:20.940Z,19.89
2018-09-22T07:32:21.057Z,19.88
2018-09-22T07:36:42.775Z,19.94
2018-09-22T07:37:43.410Z,19.97
2018-09-22T07:38:42.991Z,19.96
2018-09-22T07:39:42.960Z,19.95
2018-09-22T07:40:43.069Z,19.98
2018-09-22T07:41:43.241Z,19.98
2018-09-22T07:42:43.350Z,20
2018-09-22T07:43:43.131Z,20
2018-09-22T07:44:42.971Z,20
2018-09-22T07:45:43.499Z,20
2018-09-22T07:46:43.276Z,20.03
2018-09-22T07:49:04.685Z,20.02
2018-09-22T07:50:04.940Z,20.04
2018-09-22T07:51:04.792Z,20.03
2018-09-22T07:52:04.680Z,20.06
2018-09-22T07:53:04.955Z,20.05
2018-09-22T07:54:04.919Z,20.06
2018-09-22T07:55:04.881Z,20.09
2018-09-22T07:56:04.433Z,20.12
2018-09-22T07:57:05.131Z,20.13
2018-09-22T07:58:04.831Z,20.13
2018-09-22T07:59:04.637Z,20.13
2018-09-22T08:03:26.343Z,20.13
2018-09-22T08:04:26.317Z,20.14
2018-09-22T08:05:26.627Z,20.15
2018-09-22T08:06:26.311Z,20.16
2018-09-22T08:07:26.358Z,20.15
2018-09-22T08:08:26.376Z,20.16
2018-09-22T08:09:26.365Z,20.16
2018-09-22T08:10:26.386Z,20.15
2018-09-22T08:11:26.464Z,20.17
2018-09-22T08:12:26.450Z,20.18
2018-09-22T08:13:26.392Z,20.19
2018-09-22T08:17:48.092Z,20.19
2018-09-22T08:18:48.384Z,20.19
2018-09-22T08:19:48.716Z,20.21
2018-09-22T08:20:48.236Z,20.22
2018-09-22T08:21:48.300Z,20.24
2018-09-22T08:22:48.138Z,20.22
2018-09-22T08:23:48.274Z,20.21
2018-09-22T08:24:47.925Z,20.24
2018-09-22T08:25:48.255Z,20.22
2018-09-22T08:26:48.408Z,20.25
2018-09-22T08:27:48.629Z,20.24
2018-09-22T08:32:09.552Z,20.24
2018-09-22T08:33:09.729Z,20.26
2018-09-22T08:34:09.886Z,20.27
2018-09-22T08:35:09.899Z,20.26
2018-09-22T08:36:10.882Z,20.28
2018-09-22T08:37:10.838Z,20.27
2018-09-22T08:38:09.872Z,20.28
2018-09-22T08:39:09.800Z,20.29
2018-09-22T08:40:09.804Z,20.3
2018-09-22T08:41:09.976Z,20.26
2018-09-22T08:42:09.802Z,20.29
2018-09-22T08:46:30.995Z,20.29
2018-09-22T08:47:31.029Z,20.3
2018-09-22T08:48:31.149Z,20.3
2018-09-22T08:49:31.834Z,20.31
2018-09-22T08:50:31.086Z,20.33
2018-09-22T08:51:31.085Z,20.32
2018-09-22T08:52:31.239Z,20.31
2018-09-22T08:53:31.254Z,20.32
2018-09-22T08:54:31.106Z,20.32
2018-09-22T08:55:31.310Z,20.33
2018-09-22T08:56:31.355Z,20.33
2018-09-22T08:58:53.295Z,20.36
2018-09-22T08:59:53.599Z,20.34
2018-09-22T09:00:53.273Z,20.33
2018-09-22T09:01:53.363Z,20.33
2018-09-22T09:02:53.710Z,20.34
2018-09-22T09:03:53.316Z,20.35
2018-09-22T09:04:53.660Z,20.34
2018-09-22T09:05:53.828Z,20.36
2018-09-22T09:06:53.304Z,20.35
2018-09-22T09:07:37.320Z,20.39
2018-09-22T09:08:37.010Z,20.34
2018-09-22T09:09:37.386Z,20.35
2018-09-22T09:10:37.306Z,20.35
2018-09-22T09:11:37.272Z,20.34
2018-09-22T09:12:37.333Z,20.35
2018-09-22T09:13:37.547Z,20.33
2018-09-22T09:14:37.953Z,20.33
2018-09-22T09:15:37.941Z,20.34
2018-09-22T09:16:37.238Z,20.34
2018-09-22T09:17:38.191Z,20.32
2018-09-22T09:20:07.743Z,20.33
2018-09-22T09:21:07.728Z,20.37
2018-09-22T09:22:07.761Z,20.34
2018-09-22T09:23:07.613Z,20.36
2018-09-22T09:24:07.586Z,20.36
2018-09-22T09:25:07.524Z,20.36
2018-09-22T09:26:07.632Z,20.36
2018-09-22T09:27:07.654Z,20.39
2018-09-22T09:28:07.649Z,20.39
2018-09-22T09:29:07.597Z,20.36
2018-09-22T09:30:07.808Z,20.39
2018-09-22T09:37:08.642Z,20.4
2018-09-22T09:38:22.249Z,20.43
2018-09-22T09:39:22.364Z,20.45
2018-09-22T09:40:22.132Z,20.44
2018-09-22T09:41:21.979Z,20.47
2018-09-22T09:42:22.354Z,20.49
2018-09-22T09:43:22.642Z,20.49
2018-09-22T09:44:22.349Z,20.5
2018-09-22T09:45:22.346Z,20.54
2018-09-22T09:46:21.996Z,20.53
2018-09-22T09:47:22.113Z,20.55
2018-09-22T09:48:22.401Z,20.57
2018-09-22T09:52:49.503Z,20.62
2018-09-22T10:31:33.864Z,20.54
2018-09-22T10:33:07.387Z,20.53
2018-09-22T10:34:07.459Z,20.56
2018-09-22T10:35:07.946Z,20.55
2018-09-22T10:36:07.659Z,20.5
2018-09-22T10:37:07.471Z,20.53
2018-09-22T10:38:07.715Z,20.5
2018-09-22T10:39:07.808Z,20.48
2018-09-22T10:40:07.625Z,20.53
2018-09-22T10:41:08.111Z,20.51
2018-09-22T10:42:08.037Z,20.49
2018-09-22T10:43:07.670Z,20.53
2018-09-22T10:44:07.799Z,20.5
2018-09-22T10:45:07.728Z,20.53
2018-09-22T10:46:07.848Z,20.53
2018-09-22T10:47:07.775Z,20.55
2018-09-22T10:48:07.875Z,20.57
2018-09-22T10:49:07.811Z,20.56
2018-09-22T10:50:07.980Z,20.57
2018-09-22T10:51:07.900Z,20.57
2018-09-22T10:52:07.882Z,20.6
2018-09-22T10:53:08.717Z,20.61
2018-09-22T10:54:07.865Z,20.62
2018-09-22T10:55:07.844Z,20.61
2018-09-22T10:56:07.776Z,20.63
2018-09-22T10:57:07.914Z,20.63
2018-09-22T10:58:08.023Z,20.66
2018-09-22T10:59:07.594Z,20.69
2018-09-22T11:00:07.674Z,20.69
2018-09-22T11:01:08.112Z,20.69
2018-09-22T11:02:07.852Z,20.73
2018-09-22T11:03:07.652Z,20.71
2018-09-22T11:04:08.063Z,20.69
2018-09-22T11:05:08.334Z,20.73
2018-09-22T11:06:08.061Z,20.75
2018-09-22T11:07:07.887Z,20.74
2018-09-22T11:08:08.510Z,20.76
2018-09-22T11:09:08.103Z,20.76
2018-09-22T11:10:07.874Z,20.75
2018-09-22T11:11:07.883Z,20.75
2018-09-22T11:12:07.884Z,20.77
2018-09-22T11:13:07.930Z,20.76
2018-09-22T11:14:07.692Z,20.8
2018-09-22T11:15:07.858Z,20.81
2018-09-22T11:16:07.772Z,20.83
2018-09-22T11:17:07.876Z,20.8
2018-09-22T11:18:07.972Z,20.85
2018-09-22T11:19:08.195Z,20.8
2018-09-22T11:20:07.867Z,20.83
2018-09-22T11:21:07.687Z,20.84
2018-09-22T11:22:08.001Z,20.85
2018-09-22T11:23:07.910Z,20.86
2018-09-22T11:24:08.080Z,20.86
2018-09-22T11:25:07.801Z,20.88
2018-09-22T11:26:07.879Z,20.88
2018-09-22T11:27:08.046Z,20.88
2018-09-22T11:28:07.730Z,20.87
2018-09-22T11:29:08.148Z,20.89
2018-09-22T11:30:07.746Z,20.96
2018-09-22T11:31:07.945Z,20.95
2018-09-22T11:32:07.862Z,20.93
2018-09-22T11:33:07.959Z,20.88
2018-09-22T11:34:08.095Z,20.87
2018-09-22T11:35:07.832Z,20.88
2018-09-22T11:36:07.880Z,20.87
2018-09-22T11:37:08.013Z,20.85
2018-09-22T11:38:08.008Z,20.88
2018-09-22T11:39:07.889Z,20.86
2018-09-22T11:40:07.851Z,20.86
2018-09-22T11:41:07.994Z,20.87
2018-09-22T11:42:07.955Z,20.86
2018-09-22T11:43:07.792Z,20.85
2018-09-22T11:44:08.258Z,20.86
2018-09-22T11:45:07.930Z,20.84
2018-09-22T11:46:08.129Z,20.85
2018-09-22T11:47:08.177Z,20.83
2018-09-22T11:48:08.000Z,20.84
2018-09-22T11:49:07.561Z,20.83
2018-09-22T11:50:07.749Z,20.84
2018-09-22T11:51:07.652Z,20.85
2018-09-22T11:52:08.011Z,20.81
2018-09-22T11:53:07.636Z,20.81
2018-09-22T11:54:07.669Z,20.81
2018-09-22T11:55:07.603Z,20.83
2018-09-22T11:56:07.926Z,20.8
2018-09-22T11:57:08.102Z,20.8
2018-09-22T11:58:07.871Z,20.78
2018-09-22T11:59:07.803Z,20.8
2018-09-22T12:00:07.783Z,20.8
2018-09-22T12:01:07.732Z,20.79
2018-09-22T12:02:07.810Z,20.83
2018-09-22T12:03:07.701Z,20.84
2018-09-22T12:04:07.837Z,20.81
2018-09-22T12:05:07.742Z,20.84
2018-09-22T12:06:08.671Z,20.83
2018-09-22T12:07:08.110Z,20.81
2018-09-22T12:08:07.815Z,20.85
2018-09-22T12:09:08.020Z,20.83
2018-09-22T12:10:07.585Z,20.8
2018-09-22T12:11:07.705Z,20.78
2018-09-22T12:12:07.769Z,20.77
2018-09-22T12:13:07.726Z,20.79
2018-09-22T12:14:08.265Z,20.79
2018-09-22T12:15:07.523Z,20.79
2018-09-22T12:16:07.617Z,20.79
2018-09-22T12:17:07.623Z,20.8
2018-09-22T12:18:07.674Z,20.79
2018-09-22T12:19:08.045Z,20.77
2018-09-22T12:20:07.800Z,20.76
2018-09-22T12:21:07.692Z,20.8
2018-09-22T12:22:07.821Z,20.81
2018-09-22T12:23:07.807Z,20.77
2018-09-22T12:24:07.724Z,20.84
2018-09-22T12:25:07.933Z,20.85
2018-09-22T12:26:07.920Z,20.84
2018-09-22T12:27:08.063Z,20.81
2018-09-22T12:28:13.352Z,20.81
2018-09-22T12:29:13.260Z,20.77
2018-09-22T12:30:13.327Z,20.76
2018-09-22T12:31:11.792Z,20.73
2018-09-22T12:32:04.227Z,20.74
2018-09-22T12:32:36.704Z,20.74
2018-09-22T12:33:37.063Z,20.74
2018-09-22T12:34:36.984Z,20.77
2018-09-22T12:35:37.168Z,20.73
2018-09-22T12:36:37.022Z,20.74
2018-09-22T12:37:36.842Z,20.69
2018-09-22T12:38:36.858Z,20.74
2018-09-22T12:39:36.848Z,20.73
2018-09-22T12:40:36.845Z,20.73
2018-09-22T12:41:37.034Z,20.73
2018-09-22T12:42:36.898Z,20.73
2018-09-22T12:43:37.049Z,20.71
2018-09-22T12:44:37.065Z,20.69
2018-09-22T12:45:36.810Z,20.66
2018-09-22T12:46:37.315Z,20.69
2018-09-22T12:47:44.033Z,20.71
2018-09-22T12:48:44.139Z,20.7
2018-09-22T12:49:44.330Z,20.71
2018-09-22T12:50:44.457Z,20.69
2018-09-22T12:51:44.134Z,20.68
2018-09-22T12:52:44.094Z,20.66
2018-09-22T12:53:44.701Z,20.72
2018-09-22T12:54:44.096Z,20.69
2018-09-22T12:55:44.137Z,20.72
2018-09-22T12:56:44.313Z,20.7
2018-09-22T12:57:44.174Z,20.71
2018-09-22T12:58:17.182Z,20.71
2018-09-22T12:59:17.394Z,20.72
2018-09-22T13:00:16.794Z,20.73
2018-09-22T13:01:16.903Z,20.74
2018-09-22T13:02:17.428Z,20.74
2018-09-22T13:03:16.765Z,20.69
2018-09-22T13:04:16.779Z,20.69
2018-09-22T13:05:16.868Z,20.69
2018-09-22T13:06:16.990Z,20.68
2018-09-22T13:07:16.976Z,20.69
2018-09-22T13:08:17.077Z,20.74
2018-09-22T13:09:17.317Z,20.73
2018-09-22T13:10:16.761Z,20.72
2018-09-22T13:11:17.118Z,20.71
2018-09-22T13:12:16.858Z,20.74
2018-09-22T13:13:17.097Z,20.76
2018-09-22T13:14:16.970Z,20.75
2018-09-22T13:15:17.086Z,20.75
2018-09-22T13:16:17.048Z,20.75
2018-09-22T13:17:16.999Z,20.74
2018-09-22T13:18:16.971Z,20.74
2018-09-22T13:19:17.126Z,20.78
2018-09-22T13:20:17.783Z,20.74
2018-09-22T13:21:16.948Z,20.68
2018-09-22T13:22:17.181Z,20.73
2018-09-22T13:23:17.140Z,20.73
2018-09-22T13:24:16.789Z,20.75
2018-09-22T13:25:16.944Z,20.73
2018-09-22T13:26:16.746Z,20.73
2018-09-22T13:27:10.082Z,20.72
2018-09-22T13:28:09.804Z,20.73
2018-09-22T13:29:09.727Z,20.75
2018-09-22T13:30:09.723Z,20.73
2018-09-22T13:31:09.723Z,20.72
2018-09-22T13:32:09.509Z,20.71
2018-09-22T13:33:09.608Z,20.75
2018-09-22T13:34:09.257Z,20.75
2018-09-22T13:35:09.188Z,20.8
2018-09-22T13:36:09.130Z,20.8
2018-09-22T13:37:09.760Z,20.79
2018-09-22T13:39:36.785Z,20.8
2018-09-22T13:40:37.115Z,20.77
2018-09-22T13:41:37.093Z,20.76
2018-09-22T13:42:36.914Z,20.79
2018-09-22T13:43:36.813Z,20.8
2018-09-22T13:45:12.205Z,20.81
2018-09-22T13:46:12.282Z,20.78
2018-09-22T13:47:12.275Z,20.77
2018-09-22T13:48:11.899Z,20.74
2018-09-22T13:49:12.005Z,20.77
2018-09-22T13:50:11.868Z,20.81
2018-09-22T13:51:12.190Z,20.77
2018-09-22T13:53:05.547Z,20.81
2018-09-22T13:54:05.816Z,20.8
2018-09-22T13:55:05.766Z,20.78
2018-09-22T13:56:05.857Z,20.77
2018-09-22T13:57:05.776Z,20.84
2018-09-22T13:58:05.651Z,20.8
2018-09-22T13:59:05.748Z,20.85
2018-09-22T14:00:05.918Z,20.81
2018-09-22T14:01:05.868Z,20.78
2018-09-22T14:02:06.189Z,20.81
2018-09-22T14:03:05.837Z,20.8
2018-09-22T14:05:33.356Z,20.75
2018-09-22T14:06:33.010Z,20.74
2018-09-22T14:07:33.046Z,20.77
2018-09-22T14:08:33.417Z,20.75
2018-09-22T14:09:33.573Z,20.76
2018-09-22T14:10:34.078Z,20.74
2018-09-22T14:11:33.268Z,20.71
2018-09-22T14:12:33.085Z,20.71
2018-09-22T14:13:33.256Z,20.72
2018-09-22T14:14:33.252Z,20.74
2018-09-22T14:15:33.172Z,20.73
2018-09-22T14:18:00.301Z,20.71
2018-09-22T14:19:00.658Z,20.73
2018-09-22T14:20:00.646Z,20.71
2018-09-22T14:21:00.352Z,20.68
2018-09-22T14:22:00.557Z,20.7
2018-09-22T14:23:00.173Z,20.71
2018-09-22T14:24:00.409Z,20.7
2018-09-22T14:25:00.707Z,20.68
2018-09-22T14:26:00.667Z,20.68
2018-09-22T14:27:00.791Z,20.66
2018-09-22T14:28:00.654Z,20.68
2018-09-22T14:30:28.671Z,20.65
2018-09-22T14:31:27.843Z,20.66
2018-09-22T14:32:27.886Z,20.63
2018-09-22T14:33:28.100Z,20.63
2018-09-22T14:34:28.155Z,20.63
2018-09-22T14:35:28.010Z,20.62
2018-09-22T14:36:27.763Z,20.63
2018-09-22T14:37:27.883Z,20.61
2018-09-22T14:38:27.889Z,20.64
2018-09-22T14:39:28.247Z,20.63
2018-09-22T14:40:28.179Z,20.62
2018-09-22T14:42:55.087Z,20.59
2018-09-22T14:43:55.130Z,20.58
2018-09-22T14:44:55.156Z,20.58
2018-09-22T14:45:55.447Z,20.54
2018-09-22T14:46:55.105Z,20.57
2018-09-22T14:47:55.236Z,20.58
2018-09-22T14:48:55.323Z,20.54
2018-09-22T14:49:55.293Z,20.58
2018-09-22T14:50:55.180Z,20.53
2018-09-22T14:51:55.661Z,20.54
2018-09-22T14:52:55.208Z,20.57
2018-09-22T14:55:22.342Z,20.57
2018-09-22T14:56:22.505Z,20.53
2018-09-22T14:57:22.535Z,20.57
2018-09-22T14:58:22.542Z,20.57
2018-09-22T14:59:22.625Z,20.56
2018-09-22T15:00:22.469Z,20.59
2018-09-22T15:01:22.621Z,20.56
2018-09-22T15:02:22.486Z,20.56
2018-09-22T15:03:22.725Z,20.54
2018-09-22T15:04:22.639Z,20.5
2018-09-22T15:05:22.664Z,20.55
2018-09-22T15:07:50.035Z,20.54
2018-09-22T15:08:49.825Z,20.53
2018-09-22T15:09:49.776Z,20.54
2018-09-22T15:10:49.815Z,20.5
2018-09-22T15:11:49.819Z,20.53
2018-09-22T15:12:49.767Z,20.53
2018-09-22T15:13:49.863Z,20.5
2018-09-22T15:14:49.962Z,20.53
2018-09-22T15:15:50.079Z,20.53
2018-09-22T15:16:51.310Z,20.53
2018-09-22T15:17:50.236Z,20.49
2018-09-22T15:20:17.211Z,20.51
2018-09-22T15:21:17.252Z,20.5
2018-09-22T15:22:17.271Z,20.55
2018-09-22T15:23:17.454Z,20.53
2018-09-22T15:24:17.292Z,20.53
2018-09-22T15:25:17.396Z,20.49
2018-09-22T15:26:17.093Z,20.51
2018-09-22T15:27:17.184Z,20.5
2018-09-22T15:28:17.260Z,20.5
2018-09-22T15:29:17.239Z,20.53
2018-09-22T15:30:17.353Z,20.51
2018-09-22T15:32:44.482Z,20.48
2018-09-22T15:33:44.662Z,20.49
2018-09-22T15:34:44.639Z,20.5
2018-09-22T15:35:44.521Z,20.51